Time;durP1;ratioP1;P1;durP2;ratioP2;P2;SDS_P1;SDS_P2;PMS_P1;PMS_P2;Temp;Humidity;BMP_temperature;BMP_pressure;BME280_temperature;BME280_humidity;BME280_pressure;Samples;Min_cycle;Max_cycle;Signal;HPM_P1;HPM_P2
2021/03/26 00:00:46;;;;;;;47.73;32.03;;;;;;;10.06;69.86;100732.34;5081052;28;20499;-63
2021/03/26 00:03:15;;;;;;;53.23;34.23;;;;;;;9.98;69.71;100726.78;5081602;28;20448;-63
2021/03/26 00:05:42;;;;;;;50.33;34.07;;;;;;;10.02;69.36;100722.06;5081723;28;21012;-63
2021/03/26 00:08:09;;;;;;;47.43;32.03;;;;;;;9.98;69.25;100733.00;5081392;28;20517;-63
2021/03/26 00:10:35;;;;;;;52.67;34.60;;;;;;;9.99;68.74;100731.16;5081558;28;20476;-63
2021/03/26 00:13:01;;;;;;;48.33;31.90;;;;;;;9.97;69.44;100730.44;5082019;28;20487;-63
2021/03/26 00:15:28;;;;;;;48.43;34.10;;;;;;;9.87;69.78;100733.00;5081156;28;20594;-62
2021/03/26 00:17:55;;;;;;;52.27;35.43;;;;;;;9.77;70.26;100735.59;5082070;28;20819;-62
2021/03/26 00:20:21;;;;;;;53.10;35.07;;;;;;;9.87;70.47;100737.50;5080528;28;20451;-63
2021/03/26 00:22:47;;;;;;;57.50;36.77;;;;;;;10.01;69.81;100745.25;5082060;28;20452;-62
2021/03/26 00:25:15;;;;;;;59.47;36.07;;;;;;;10.13;69.63;100733.56;5080968;28;20448;-62
2021/03/26 00:27:41;;;;;;;56.57;35.97;;;;;;;10.19;69.43;100729.56;5082065;28;20902;-62
2021/03/26 00:30:10;;;;;;;58.50;38.80;;;;;;;10.23;69.48;100736.31;5080054;28;20473;-63
2021/03/26 00:32:37;;;;;;;51.50;34.97;;;;;;;10.24;69.11;100727.34;5080996;28;20487;-63
2021/03/26 00:35:08;;;;;;;58.30;36.73;;;;;;;10.15;69.51;100734.28;5081455;28;20963;-62
2021/03/26 00:37:34;;;;;;;57.10;38.00;;;;;;;10.08;69.73;100734.91;5080436;28;20476;-63
2021/03/26 00:40:00;;;;;;;55.43;36.90;;;;;;;9.89;70.75;100727.53;5081694;28;20793;-62
2021/03/26 00:42:26;;;;;;;55.00;37.23;;;;;;;9.95;70.51;100724.38;5081012;28;20480;-63
2021/03/26 00:44:52;;;;;;;60.03;39.40;;;;;;;9.91;71.07;100722.91;5080572;28;20460;-62
2021/03/26 00:47:19;;;;;;;62.67;40.20;;;;;;;9.80;71.34;100724.63;5081097;28;20490;-62
2021/03/26 00:49:45;;;;;;;58.20;37.60;;;;;;;9.76;71.03;100723.19;5081304;28;20463;-62
2021/03/26 00:52:12;;;;;;;63.40;37.37;;;;;;;9.73;71.48;100715.44;5080773;28;20486;-62
2021/03/26 00:54:38;;;;;;;60.17;37.40;;;;;;;9.82;71.14;100719.19;5081281;28;20483;-62
2021/03/26 00:57:05;;;;;;;64.07;38.90;;;;;;;9.68;71.38;100708.78;5080973;28;20475;-62
2021/03/26 00:59:31;;;;;;;65.23;40.57;;;;;;;9.79;71.20;100712.28;5081297;28;20470;-62
2021/03/26 01:01:57;;;;;;;52.00;36.70;;;;;;;9.75;70.95;100709.97;5081006;28;20478;-63
2021/03/26 01:04:24;;;;;;;62.00;40.87;;;;;;;9.51;72.58;100697.63;5080848;28;20471;-63
2021/03/26 01:06:50;;;;;;;59.27;39.27;;;;;;;9.43;72.38;100705.41;5080575;28;20479;-62
2021/03/26 01:09:17;;;;;;;71.60;38.77;;;;;;;9.52;72.36;100693.16;5080544;28;20985;-62
2021/03/26 01:11:43;;;;;;;68.67;39.77;;;;;;;9.52;72.75;100701.16;5080858;28;20475;-62
2021/03/26 01:14:12;;;;;;;73.87;42.67;;;;;;;9.50;72.56;100700.44;5080798;28;20518;-62
2021/03/26 01:16:39;;;;;;;63.60;39.50;;;;;;;9.75;72.29;100700.13;5079881;28;20472;-62
2021/03/26 01:19:06;;;;;;;62.30;38.87;;;;;;;9.76;71.51;100693.00;5080867;28;20484;-62
2021/03/26 01:21:35;;;;;;;62.93;39.17;;;;;;;9.87;71.11;100697.44;5080693;28;20503;-62
2021/03/26 01:24:03;;;;;;;57.33;36.67;;;;;;;9.74;70.96;100701.13;5081061;28;20452;-62
2021/03/26 01:26:30;;;;;;;57.60;36.77;;;;;;;9.72;71.29;100695.06;5080478;28;20492;-62
2021/03/26 01:28:56;;;;;;;60.63;37.60;;;;;;;9.59;71.81;100694.34;5080903;28;20458;-62
2021/03/26 01:31:22;;;;;;;63.30;37.13;;;;;;;9.85;70.91;100694.91;5079977;28;20467;-62
2021/03/26 01:33:49;;;;;;;55.97;35.57;;;;;;;9.98;70.35;100698.28;5080745;28;20571;-62
2021/03/26 01:36:15;;;;;;;62.03;37.80;;;;;;;10.05;69.81;100690.63;5079791;28;20992;-62
2021/03/26 01:38:42;;;;;;;59.43;35.57;;;;;;;9.79;70.30;100688.25;5079901;28;20515;-62
2021/03/26 01:41:14;;;;;;;62.13;34.10;;;;;;;9.94;70.45;100704.81;5079940;28;20502;-63
2021/03/26 01:43:42;;;;;;;66.00;35.00;;;;;;;9.76;71.13;100685.81;5082740;28;20440;-62
2021/03/26 01:46:11;;;;;;;57.97;36.23;;;;;;;9.93;70.02;100688.91;5083200;28;20490;-62
2021/03/26 01:48:39;;;;;;;54.33;34.33;;;;;;;10.06;69.54;100686.94;5084883;28;20535;-62
2021/03/26 01:51:07;;;;;;;49.97;33.17;;;;;;;10.00;69.35;100684.78;5083723;28;20521;-62
2021/03/26 01:53:33;;;;;;;55.00;32.70;;;;;;;9.92;70.09;100684.56;5084132;28;20523;-62
2021/03/26 01:56:01;;;;;;;49.67;32.57;;;;;;;10.02;69.70;100685.50;5084137;28;20505;-63
2021/03/26 01:58:29;;;;;;;50.13;31.13;;;;;;;10.11;69.16;100684.75;5084212;28;20469;-62
2021/03/26 02:00:59;;;;;;;52.03;31.57;;;;;;;9.85;69.83;100689.56;5083265;28;20560;-62
2021/03/26 02:03:30;;;;;;;47.13;31.60;;;;;;;9.87;69.85;100686.78;5084269;28;20456;-62
2021/03/26 02:05:57;;;;;;;49.73;31.03;;;;;;;9.85;69.76;100686.88;5083624;28;21106;-62
2021/03/26 02:08:26;;;;;;;49.10;31.40;;;;;;;9.93;69.48;100688.91;5083908;28;20450;-62
2021/03/26 02:10:52;;;;;;;48.10;31.83;;;;;;;10.07;68.75;100677.09;5083229;28;20463;-62
2021/03/26 02:13:23;;;;;;;51.07;30.20;;;;;;;9.80;69.81;100681.91;5084056;28;20511;-62
2021/03/26 02:15:49;;;;;;;45.67;30.60;;;;;;;9.81;70.18;100682.78;5083122;28;20517;-62
2021/03/26 02:18:20;;;;;;;47.03;30.27;;;;;;;9.70;70.20;100682.78;5083680;28;20455;-62
2021/03/26 02:20:49;;;;;;;43.83;28.27;;;;;;;9.66;70.16;100682.19;5082991;28;20475;-62
2021/03/26 02:23:18;;;;;;;49.00;31.00;;;;;;;9.79;70.20;100680.25;5083574;28;20481;-62
2021/03/26 02:25:44;;;;;;;48.10;30.70;;;;;;;9.85;69.69;100676.22;5083219;28;20477;-62
2021/03/26 02:28:11;;;;;;;45.30;30.30;;;;;;;10.06;69.21;100670.09;5083973;28;20451;-62
2021/03/26 02:30:44;;;;;;;43.70;27.13;;;;;;;10.08;68.76;100676.97;5082158;28;20478;-62
2021/03/26 02:33:10;;;;;;;49.40;31.43;;;;;;;10.13;68.72;100671.25;5083321;28;20494;-62
2021/03/26 02:35:39;;;;;;;40.33;27.63;;;;;;;10.20;68.12;100668.94;5082872;28;20789;-62
2021/03/26 02:38:10;;;;;;;44.20;29.07;;;;;;;9.91;69.15;100673.06;5082898;28;20480;-62
2021/03/26 02:40:40;;;;;;;44.93;29.27;;;;;;;9.98;68.98;100662.69;5082561;28;21013;-62
2021/03/26 02:43:18;;;;;;;41.63;29.00;;;;;;;10.20;68.10;100667.09;5083909;28;20471;-62
2021/03/26 02:45:48;;;;;;;39.27;28.60;;;;;;;10.22;68.08;100667.81;5082339;28;20473;-62
2021/03/26 02:48:19;;;;;;;47.47;30.50;;;;;;;10.24;68.12;100667.69;5083862;28;20443;-62
2021/03/26 02:50:57;;;;;;;47.37;30.00;;;;;;;10.38;67.44;100670.09;5082124;28;20475;-62
2021/03/26 02:53:27;;;;;;;46.23;29.97;;;;;;;10.17;68.28;100662.88;5082884;28;20542;-62
2021/03/26 02:56:00;;;;;;;45.23;29.50;;;;;;;10.38;67.50;100658.53;5081420;28;20493;-62
2021/03/26 02:58:29;;;;;;;49.00;32.93;;;;;;;10.03;68.27;100660.47;5083371;28;20432;-62
2021/03/26 03:01:00;;;;;;;47.13;29.83;;;;;;;10.00;69.11;100666.09;5081848;28;20483;-62
2021/03/26 03:03:28;;;;;;;46.60;31.10;;;;;;;10.17;68.40;100662.88;5083106;28;20877;-62
2021/03/26 03:05:58;;;;;;;44.03;28.23;;;;;;;10.09;68.67;100668.00;5081878;28;20490;-62
2021/03/26 03:08:27;;;;;;;46.20;30.30;;;;;;;10.08;68.51;100660.94;5082793;28;20947;-62
2021/03/26 03:10:58;;;;;;;47.33;29.77;;;;;;;10.16;68.31;100663.84;5082391;28;20583;-62
2021/03/26 03:13:31;;;;;;;45.83;29.40;;;;;;;10.20;68.30;100656.41;5082857;28;20514;-62
2021/03/26 03:16:01;;;;;;;47.20;30.90;;;;;;;10.25;67.87;100656.03;5081749;28;20471;-62
2021/03/26 03:18:29;;;;;;;46.97;30.60;;;;;;;10.13;68.21;100652.56;5083485;28;20428;-62
2021/03/26 03:21:01;;;;;;;47.87;31.43;;;;;;;9.87;69.08;100663.56;5082361;28;20472;-62
2021/03/26 03:23:33;;;;;;;44.87;30.17;;;;;;;9.94;68.89;100653.25;5083012;28;20440;-62
2021/03/26 03:26:04;;;;;;;44.97;30.70;;;;;;;9.96;68.56;100660.16;5082476;28;20464;-62
2021/03/26 03:28:33;;;;;;;47.47;29.23;;;;;;;9.89;68.58;100656.28;5082872;28;20428;-62
2021/03/26 03:31:05;;;;;;;46.33;31.27;;;;;;;9.69;69.18;100654.41;5081290;28;20472;-62
2021/03/26 03:33:36;;;;;;;49.27;32.30;;;;;;;9.89;69.12;100658.94;5082683;28;20492;-62
2021/03/26 03:36:05;;;;;;;51.17;32.27;;;;;;;9.78;69.17;100656.31;5081901;28;20928;-62
2021/03/26 03:38:41;;;;;;;45.70;29.97;;;;;;;9.80;69.38;100652.53;5082369;28;20475;-62
2021/03/26 03:41:10;;;;;;;46.03;30.93;;;;;;;9.89;68.68;100658.09;5081769;28;20963;-62
2021/03/26 03:43:41;;;;;;;50.80;30.10;;;;;;;9.80;68.70;100660.56;5082538;28;20459;-62
2021/03/26 03:46:13;;;;;;;50.00;31.50;;;;;;;9.82;68.75;100659.59;5081687;28;20479;-62
2021/03/26 03:48:43;;;;;;;48.80;31.60;;;;;;;9.47;70.06;100653.47;5082276;28;20798;-62
2021/03/26 03:51:17;;;;;;;51.60;33.17;;;;;;;9.73;69.08;100658.53;5082046;28;20471;-62
2021/03/26 03:53:46;;;;;;;53.20;31.90;;;;;;;9.43;69.92;100657.38;5082172;28;20484;-62
2021/03/26 03:56:21;;;;;;;57.93;34.37;;;;;;;9.64;69.49;100654.78;5081950;28;20858;-62
2021/03/26 03:58:52;;;;;;;52.50;31.43;;;;;;;9.52;69.60;100647.78;5082533;28;20434;-62
2021/03/26 04:01:25;;;;;;;55.27;34.37;;;;;;;9.54;69.70;100643.16;5081029;28;20511;-62
2021/03/26 04:03:53;;;;;;;52.83;32.33;;;;;;;9.68;68.86;100645.53;5082198;28;20452;-63
2021/03/26 04:06:21;;;;;;;50.43;33.47;;;;;;;9.57;69.07;100649.09;5081280;28;20500;-62
2021/03/26 04:08:51;;;;;;;53.60;33.20;;;;;;;9.42;69.67;100653.00;5081483;28;20456;-62
2021/03/26 04:11:24;;;;;;;51.77;33.87;;;;;;;9.30;69.94;100657.47;5080997;28;20472;-62
2021/03/26 04:13:56;;;;;;;52.00;31.00;;;;;;;9.40;69.45;100654.94;5081785;28;20948;-62
2021/03/26 04:16:25;;;;;;;53.10;34.30;;;;;;;9.19;70.25;100650.34;5080924;28;20471;-62
2021/03/26 04:18:53;;;;;;;53.93;34.70;;;;;;;9.05;71.32;100651.44;5082273;28;20481;-62
2021/03/26 04:21:24;;;;;;;51.97;33.37;;;;;;;9.13;71.20;100649.97;5081348;28;20972;-62
2021/03/26 04:23:55;;;;;;;50.00;32.70;;;;;;;9.28;70.51;100647.91;5081414;28;20475;-62
2021/03/26 04:26:24;;;;;;;53.43;33.47;;;;;;;9.06;71.41;100649.59;5081306;28;20471;-62
2021/03/26 04:28:54;;;;;;;58.73;34.80;;;;;;;9.15;70.79;100634.69;5081951;28;20420;-62
2021/03/26 04:31:25;;;;;;;55.03;35.33;;;;;;;8.93;71.47;100636.41;5080209;28;20533;-62
2021/03/26 04:33:52;;;;;;;53.20;33.93;;;;;;;9.09;71.05;100644.03;5081294;28;20514;-63
2021/03/26 04:36:23;;;;;;;53.43;34.80;;;;;;;9.16;70.61;100631.91;5080842;28;20474;-62
2021/03/26 04:38:52;;;;;;;58.93;33.63;;;;;;;9.26;70.10;100637.38;5080532;28;20479;-62
2021/03/26 04:41:27;;;;;;;50.30;32.43;;;;;;;9.35;69.54;100636.63;5081194;28;20518;-62
2021/03/26 04:43:56;;;;;;;54.17;32.33;;;;;;;9.29;69.88;100634.47;5081413;28;20444;-62
2021/03/26 04:46:25;;;;;;;54.10;33.87;;;;;;;9.36;69.45;100632.16;5080217;28;20482;-62
2021/03/26 04:49:00;;;;;;;49.80;32.53;;;;;;;9.45;68.84;100627.88;5081794;28;20482;-62
2021/03/26 04:51:33;;;;;;;61.40;32.73;;;;;;;9.32;69.40;100634.22;5080626;28;20482;-62
2021/03/26 04:54:04;;;;;;;59.30;35.67;;;;;;;9.27;69.74;100636.41;5081326;28;20491;-62
2021/03/26 04:56:35;;;;;;;55.43;32.97;;;;;;;9.39;68.97;100631.88;5080994;28;20514;-62
2021/03/26 04:59:04;;;;;;;61.50;35.97;;;;;;;9.28;69.90;100640.75;5081369;28;21122;-62
2021/03/26 05:01:31;;;;;;;51.10;33.50;;;;;;;9.30;70.10;100644.13;5080336;28;20476;-62
2021/03/26 05:04:05;;;;;;;58.97;34.63;;;;;;;9.20;69.96;100636.03;5067878;28;20479;-62
2021/03/26 05:06:34;;;;;;;55.10;33.30;;;;;;;9.20;69.95;100636.03;5060225;28;20477;-62
2021/03/26 05:09:11;;;;;;;68.93;37.20;;;;;;;9.05;70.93;100634.59;5060836;28;20468;-62
2021/03/26 05:11:42;;;;;;;66.17;37.77;;;;;;;9.13;71.32;100636.63;5080897;28;20482;-62
2021/03/26 05:14:12;;;;;;;61.63;35.10;;;;;;;9.49;69.99;100643.50;5076283;28;20549;-62
2021/03/26 05:16:46;;;;;;;66.20;37.87;;;;;;;9.14;70.44;100633.84;5081695;28;20484;-62
2021/03/26 05:19:16;;;;;;;58.30;35.43;;;;;;;9.29;70.33;100637.13;5082534;28;20416;-62
2021/03/26 05:21:45;;;;;;;60.17;36.80;;;;;;;9.30;69.82;100638.81;5064345;28;20480;-62
2021/03/26 05:24:18;;;;;;;55.13;35.53;;;;;;;9.46;69.36;100627.78;5074934;28;20447;-62
2021/03/26 05:26:45;;;;;;;59.50;36.50;;;;;;;9.31;70.31;100629.00;5083363;28;20475;-62
2021/03/26 05:29:11;;;;;;;52.43;33.60;;;;;;;9.27;70.32;100628.41;5096273;28;20928;-62
2021/03/26 05:31:45;;;;;;;62.77;37.33;;;;;;;9.46;69.64;100629.56;5082994;28;20471;-62
2021/03/26 05:34:15;;;;;;;55.77;34.70;;;;;;;9.55;69.18;100621.69;5100463;28;20498;-62
2021/03/26 05:36:45;;;;;;;59.40;34.87;;;;;;;9.69;68.64;100625.06;5103827;28;20463;-63
2021/03/26 05:39:14;;;;;;;60.03;35.10;;;;;;;9.95;67.90;100625.56;5095917;28;20483;-62
2021/03/26 05:42:02;;;;;;;54.03;33.90;;;;;;;9.91;67.58;100626.78;5083818;28;20470;-62
2021/03/26 05:44:43;;;;;;;51.23;31.90;;;;;;;10.15;66.97;100619.38;5083092;28;20451;-63
2021/03/26 05:47:25;;;;;;;49.60;31.87;;;;;;;10.25;66.21;100622.13;5083814;28;20479;-63
2021/03/26 05:50:09;;;;;;;54.27;34.33;;;;;;;10.17;66.13;100630.81;5083886;28;20481;-63
2021/03/26 05:52:42;;;;;;;53.17;32.50;;;;;;;10.32;66.10;100625.19;5084613;28;20467;-63
2021/03/26 05:55:44;;;;;;;54.67;34.77;;;;;;;10.09;67.01;100622.59;5082335;28;20484;-62
2021/03/26 05:58:22;;;;;;;60.20;33.13;;;;;;;10.43;65.83;100618.91;5060570;28;20464;-62
2021/03/26 06:01:10;;;;;;;48.90;30.33;;;;;;;10.63;65.14;100614.53;5081508;28;20499;-63
2021/03/26 06:04:19;;;;;;;49.13;31.47;;;;;;;10.64;65.20;100619.78;5082560;28;20428;-62
2021/03/26 06:07:06;;;;;;;46.97;31.23;;;;;;;10.78;64.89;100615.03;5082548;28;20476;-62
2021/03/26 06:10:15;;;;;;;43.07;29.33;;;;;;;10.92;64.26;100622.72;5083414;28;20432;-62
2021/03/26 06:13:16;;;;;;;48.13;31.63;;;;;;;10.81;64.28;100620.97;5074636;28;20768;-62
2021/03/26 06:16:10;;;;;;;46.23;30.23;;;;;;;11.10;63.89;100614.91;5081236;28;20847;-63
2021/03/26 06:18:51;;;;;;;47.13;29.90;;;;;;;11.16;63.64;100622.38;5067891;28;20451;-60
2021/03/26 06:21:24;;;;;;;50.50;30.40;;;;;;;11.36;62.88;100623.31;5102705;28;20470;-60
2021/03/26 06:24:19;;;;;;;44.80;28.97;;;;;;;11.52;62.36;100622.78;5098700;28;20475;-61
2021/03/26 06:27:15;;;;;;;48.77;30.83;;;;;;;12.24;60.92;100634.16;5077890;28;21028;-61
2021/03/26 06:29:49;;;;;;;41.40;29.00;;;;;;;12.70;58.76;100624.47;5071675;28;20455;-61
2021/03/26 06:32:53;;;;;;;41.93;29.33;;;;;;;13.31;56.61;100617.75;5081426;28;20481;-61
2021/03/26 06:35:51;;;;;;;37.60;25.17;;;;;;;13.04;57.08;100623.94;5082058;28;20460;-62
2021/03/26 06:38:35;;;;;;;39.90;24.87;;;;;;;14.24;54.19;100614.00;5100907;28;20487;-61
2021/03/26 06:41:06;;;;;;;34.43;23.87;;;;;;;14.27;53.40;100616.41;5102545;28;20482;-61
2021/03/26 06:44:10;;;;;;;32.10;23.70;;;;;;;14.01;53.73;100614.50;5062351;28;20948;-61
2021/03/26 06:46:45;;;;;;;33.97;24.80;;;;;;;14.49;53.47;100617.72;5058523;28;20471;-61
2021/03/26 06:49:23;;;;;;;36.87;26.23;;;;;;;15.23;51.06;100610.09;5082377;28;20957;-63
2021/03/26 06:51:57;;;;;;;30.47;22.57;;;;;;;14.77;50.85;100614.91;5081708;28;20471;-61
2021/03/26 06:54:37;;;;;;;36.00;25.70;;;;;;;15.01;50.67;100609.66;5077444;28;20541;-61
2021/03/26 06:57:24;;;;;;;30.57;22.77;;;;;;;14.46;52.99;100609.97;5062118;28;20465;-61
2021/03/26 07:00:04;;;;;;;34.83;23.33;;;;;;;15.08;50.93;100609.88;5087901;28;20440;-62
2021/03/26 07:03:02;;;;;;;33.50;24.40;;;;;;;15.69;49.17;100609.72;5078248;28;20452;-60
2021/03/26 07:06:01;;;;;;;32.63;22.60;;;;;;;15.24;49.72;100601.00;5078115;28;20475;-58
2021/03/26 07:08:48;;;;;;;31.60;24.83;;;;;;;14.85;50.81;100602.34;5081452;28;20523;-59
2021/03/26 07:11:25;;;;;;;31.73;21.90;;;;;;;15.00;50.34;100607.16;5081246;28;20482;-59
2021/03/26 07:14:09;;;;;;;30.87;24.10;;;;;;;14.87;50.48;100605.72;5087070;28;20739;-59
2021/03/26 07:16:58;;;;;;;34.27;23.83;;;;;;;16.15;47.72;100600.22;5080116;28;20475;-58
2021/03/26 07:19:36;;;;;;;30.97;23.33;;;;;;;15.58;49.38;100610.91;5082384;28;20436;-58
2021/03/26 07:22:18;;;;;;;27.90;21.70;;;;;;;15.22;50.18;100600.31;5081560;28;20507;-60
2021/03/26 07:25:01;;;;;;;31.90;23.53;;;;;;;16.26;47.40;100609.81;5082313;28;20453;-62
2021/03/26 07:27:42;;;;;;;30.40;23.00;;;;;;;16.84;45.71;100602.53;5080245;28;20475;-62
2021/03/26 07:30:20;;;;;;;30.50;22.93;;;;;;;17.45;45.06;100602.78;5091288;28;20455;-62
2021/03/26 07:32:49;;;;;;;30.07;24.47;;;;;;;16.68;45.43;100618.72;5074234;28;20466;-62
2021/03/26 07:35:37;;;;;;;28.50;21.53;;;;;;;16.51;46.39;100612.53;5074395;28;20488;-63
2021/03/26 07:38:23;;;;;;;31.90;25.50;;;;;;;16.02;47.70;100605.25;5079152;28;20514;-63
2021/03/26 07:41:00;;;;;;;29.80;23.73;;;;;;;16.93;45.95;100603.34;5074984;28;20498;-63
2021/03/26 07:43:47;;;;;;;33.93;23.37;;;;;;;17.10;44.74;100606.84;5075404;28;20447;-62
2021/03/26 07:46:24;;;;;;;33.30;23.87;;;;;;;18.76;42.07;100606.34;5079577;28;20529;-63
2021/03/26 07:49:20;;;;;;;31.33;24.90;;;;;;;16.48;45.96;100604.75;5080875;28;20463;-62
2021/03/26 07:51:53;;;;;;;32.97;24.10;;;;;;;15.95;47.72;100612.34;5072104;28;20486;-65
2021/03/26 07:54:35;;;;;;;32.60;24.43;;;;;;;16.04;47.49;100605.09;5067557;28;20495;-63
2021/03/26 07:57:25;;;;;;;33.63;25.50;;;;;;;16.89;45.35;100602.84;5071610;28;20484;-62
2021/03/26 08:00:11;;;;;;;35.43;26.17;;;;;;;15.61;48.62;100602.50;5073220;28;20460;-61
2021/03/26 08:02:41;;;;;;;36.60;25.80;;;;;;;15.18;49.54;100601.66;5062530;28;20535;-61
2021/03/26 08:05:18;;;;;;;31.63;24.43;;;;;;;16.38;47.06;100602.22;5072003;28;20445;-61
2021/03/26 08:08:03;;;;;;;33.00;27.33;;;;;;;15.67;48.39;100599.13;5078319;28;20496;-62
2021/03/26 08:10:34;;;;;;;33.37;23.87;;;;;;;15.44;48.92;100593.50;5073313;28;21102;-62
2021/03/26 08:13:32;;;;;;;29.53;22.93;;;;;;;16.56;46.04;100594.78;5078114;28;20574;-61
2021/03/26 08:16:10;;;;;;;30.73;22.43;;;;;;;17.68;43.69;100585.75;5072340;28;20479;-60
2021/03/26 08:18:45;;;;;;;29.27;21.50;;;;;;;16.43;45.28;100597.16;5077135;28;20447;-60
2021/03/26 08:21:17;;;;;;;32.70;22.70;;;;;;;16.04;47.06;100600.56;5071482;28;20476;-63
2021/03/26 08:23:54;;;;;;;29.70;20.20;;;;;;;15.59;48.40;100591.03;5076397;28;20816;-62
2021/03/26 08:26:42;;;;;;;30.03;21.60;;;;;;;15.60;48.35;100596.22;5077688;28;20498;-61
2021/03/26 08:29:26;;;;;;;27.03;21.43;;;;;;;15.63;48.38;100592.38;5074855;28;20451;-64
2021/03/26 08:32:49;;;;;;;33.43;24.10;;;;;;;16.69;45.37;100579.94;5073137;28;20531;-62
2021/03/26 08:35:38;;;;;;;30.73;22.13;;;;;;;16.75;45.96;100590.88;4953251;28;20497;-62
2021/03/26 08:38:15;;;;;;;27.63;23.27;;;;;;;17.20;43.88;100602.06;4946669;28;20501;-62
2021/03/26 08:40:49;;;;;;;28.50;23.13;;;;;;;16.48;46.38;100600.19;4939268;28;20578;-62
2021/03/26 08:43:17;;;;;;;29.53;22.20;;;;;;;16.78;45.16;100586.16;4947965;29;20498;-62
2021/03/26 08:45:48;;;;;;;30.03;22.80;;;;;;;17.49;43.37;100585.19;4951069;28;20517;-62
2021/03/26 08:48:23;;;;;;;32.50;23.73;;;;;;;18.36;41.68;100588.66;4949986;28;20492;-63
2021/03/26 08:51:01;;;;;;;30.10;21.37;;;;;;;18.02;42.64;100587.25;4951087;28;20632;-61
2021/03/26 08:53:39;;;;;;;25.10;21.30;;;;;;;17.28;44.27;100583.09;4944859;29;20556;-61
2021/03/26 08:56:24;;;;;;;31.23;22.90;;;;;;;15.67;47.13;100596.41;4947378;29;20500;-61
2021/03/26 08:59:18;;;;;;;29.20;21.30;;;;;;;17.16;44.20;100587.22;4951689;29;20795;-61
2021/03/26 09:02:17;;;;;;;29.20;21.20;;;;;;;16.67;44.77;100590.06;4948068;28;20477;-60
2021/03/26 09:04:52;;;;;;;26.63;19.70;;;;;;;16.69;43.89;100594.25;4920173;29;20552;-60
2021/03/26 09:07:26;;;;;;;28.80;22.17;;;;;;;17.04;44.59;100588.63;4952079;29;20489;-61
2021/03/26 09:10:02;;;;;;;26.23;20.70;;;;;;;17.13;44.27;100596.53;5003334;28;20478;-63
2021/03/26 09:12:53;;;;;;;26.53;19.47;;;;;;;17.67;41.86;100593.03;5070287;28;20617;-61
2021/03/26 09:15:42;;;;;;;27.90;19.87;;;;;;;17.38;42.87;100585.59;5073661;28;20552;-62
2021/03/26 09:18:18;;;;;;;25.70;20.40;;;;;;;18.01;42.02;100583.69;5076257;28;20447;-60
2021/03/26 09:20:55;;;;;;;24.90;19.23;;;;;;;17.60;41.60;100575.00;5070749;28;20476;-61
2021/03/26 09:24:12;;;;;;;23.87;18.90;;;;;;;17.81;40.52;100580.63;5070169;28;20494;-63
2021/03/26 09:26:47;;;;;;;22.20;16.23;;;;;;;19.84;37.42;100579.63;4989560;28;20511;-61
2021/03/26 09:29:17;;;;;;;20.83;15.50;;;;;;;18.29;38.51;100575.00;5005945;28;20520;-61
2021/03/26 09:31:48;;;;;;;22.20;15.87;;;;;;;18.59;38.74;100573.19;5005971;28;21109;-61
2021/03/26 09:34:22;;;;;;;18.27;15.80;;;;;;;17.66;40.99;100571.59;5010065;28;20505;-62
2021/03/26 09:37:06;;;;;;;23.23;16.30;;;;;;;17.40;40.72;100571.91;5007861;28;20485;-60
2021/03/26 09:39:33;;;;;;;23.50;16.77;;;;;;;19.00;38.22;100567.34;5014155;28;20600;-61
2021/03/26 09:42:15;;;;;;;28.20;17.13;;;;;;;18.14;39.44;100566.88;5004103;28;20478;-61
2021/03/26 09:44:47;;;;;;;18.23;16.30;;;;;;;18.07;38.52;100571.28;5010113;28;20463;-61
2021/03/26 09:47:18;;;;;;;18.53;16.20;;;;;;;19.10;37.28;100556.22;5010170;28;20505;-60
2021/03/26 09:49:47;;;;;;;15.93;14.00;;;;;;;19.07;36.82;100572.00;5001756;28;20462;-61
2021/03/26 09:52:22;;;;;;;20.50;15.90;;;;;;;18.14;39.14;100560.59;5006635;28;20510;-62
2021/03/26 09:54:49;;;;;;;17.40;15.07;;;;;;;19.00;37.17;100561.09;5005903;28;20489;-62
2021/03/26 09:57:22;;;;;;;20.70;15.93;;;;;;;17.45;39.28;100558.72;5041426;28;20476;-61
2021/03/26 09:59:57;;;;;;;17.90;14.87;;;;;;;16.69;40.62;100542.97;5073309;28;20472;-61
2021/03/26 10:02:32;;;;;;;20.60;15.80;;;;;;;17.91;39.45;100549.81;5071143;28;21047;-62
2021/03/26 10:05:08;;;;;;;20.47;16.23;;;;;;;18.75;37.03;100539.69;5067762;28;20460;-61
2021/03/26 10:07:43;;;;;;;19.27;16.07;;;;;;;19.25;36.01;100548.06;5071640;28;20483;-61
2021/03/26 10:13:16;;;;;;;18.13;14.70;;;;;;;20.99;33.86;100525.13;5027089;28;20435;-61
2021/03/26 10:15:45;;;;;;;23.50;15.60;;;;;;;19.32;35.14;100529.16;5025786;28;20491;-60
2021/03/26 10:18:16;;;;;;;19.23;15.00;;;;;;;18.44;36.47;100537.13;5025965;28;20451;-60
2021/03/26 10:20:47;;;;;;;17.73;14.60;;;;;;;18.18;36.95;100526.75;5029855;28;20909;-61
2021/03/26 10:23:35;;;;;;;21.30;14.50;;;;;;;18.61;36.35;100525.09;5032955;28;20519;-61
2021/03/26 10:26:11;;;;;;;19.27;13.50;;;;;;;18.75;35.83;100515.31;5028214;28;20480;-61
2021/03/26 10:29:03;;;;;;;16.57;13.10;;;;;;;18.24;36.62;100504.34;5030344;28;20450;-60
2021/03/26 10:31:35;;;;;;;21.63;14.60;;;;;;;19.02;35.93;100507.53;5029901;28;21185;-60
2021/03/26 10:34:05;;;;;;;16.60;14.10;;;;;;;19.48;35.10;100507.22;5025931;28;20769;-60
2021/03/26 10:36:41;;;;;;;20.27;14.10;;;;;;;19.35;35.48;100497.06;5027155;28;20484;-61
2021/03/26 10:39:10;;;;;;;18.90;13.93;;;;;;;19.19;34.92;100497.31;5025258;28;21435;-60
2021/03/26 10:41:46;;;;;;;15.27;12.50;;;;;;;20.14;34.45;100487.19;5023220;28;20788;-60
2021/03/26 10:44:21;;;;;;;14.47;12.47;;;;;;;21.12;31.56;100488.97;5042357;28;20453;-61
2021/03/26 10:46:52;;;;;;;22.33;14.00;;;;;;;19.21;34.40;100481.69;5047134;28;20598;-60
2021/03/26 10:49:23;;;;;;;15.10;12.17;;;;;;;19.38;34.33;100471.47;5054564;28;20444;-61
2021/03/26 10:51:51;;;;;;;17.40;12.37;;;;;;;19.60;34.35;100463.31;5044917;28;20477;-62
2021/03/26 10:54:22;;;;;;;18.80;12.10;;;;;;;19.04;35.67;100464.81;5051395;28;20488;-63
2021/03/26 10:57:04;;;;;;;16.13;12.10;;;;;;;19.53;33.81;100471.41;5056835;28;20477;-63
2021/03/26 10:59:40;;;;;;;11.73;10.40;;;;;;;19.84;32.62;100467.50;5058481;28;20981;-61
2021/03/26 11:02:26;;;;;;;12.87;10.87;;;;;;;20.16;32.10;100462.56;5052034;28;20484;-62
2021/03/26 11:05:25;;;;;;;12.77;10.63;;;;;;;18.77;34.50;100460.94;5053658;28;20455;-62
2021/03/26 11:08:15;;;;;;;12.30;10.57;;;;;;;18.54;34.85;100448.38;4964533;28;20473;-61
2021/03/26 11:10:44;;;;;;;13.27;11.20;;;;;;;18.59;34.78;100454.06;4975760;28;20480;-60
2021/03/26 11:13:18;;;;;;;17.13;11.90;;;;;;;20.09;33.19;100449.75;4975994;28;20444;-62
2021/03/26 11:15:49;;;;;;;13.80;10.70;;;;;;;19.60;34.16;100461.47;4974615;28;20472;-63
2021/03/26 11:18:18;;;;;;;12.23;10.63;;;;;;;18.47;34.26;100443.88;4975878;28;20467;-63
2021/03/26 11:20:49;;;;;;;13.43;11.27;;;;;;;17.96;36.00;100428.38;4974517;28;20481;-64
2021/03/26 11:23:24;;;;;;;14.50;11.63;;;;;;;17.65;36.84;100446.38;4960005;28;20492;-61
2021/03/26 11:25:53;;;;;;;20.83;11.37;;;;;;;17.92;36.56;100430.59;4962975;28;20481;-61
2021/03/26 11:28:25;;;;;;;12.67;9.37;;;;;;;19.02;36.09;100425.41;4973751;28;20457;-61
2021/03/26 11:30:59;;;;;;;14.50;10.50;;;;;;;18.15;36.22;100427.00;4975064;28;20880;-63
2021/03/26 11:33:40;;;;;;;13.77;10.43;;;;;;;17.88;36.35;100426.59;4974776;28;20648;-63
2021/03/26 11:36:50;;;;;;;12.83;10.47;;;;;;;18.75;35.41;100417.78;4978782;28;21126;-63
2021/03/26 11:39:21;;;;;;;14.83;9.13;;;;;;;19.06;35.13;100423.97;4967955;28;20503;-63
2021/03/26 11:41:51;;;;;;;11.80;9.70;;;;;;;18.43;34.34;100411.75;5004006;28;20476;-64
2021/03/26 11:44:20;;;;;;;10.90;8.87;;;;;;;19.18;33.07;100415.19;5053362;28;20452;-62
2021/03/26 11:46:51;;;;;;;11.17;8.43;;;;;;;19.09;34.07;100410.88;5056652;28;20504;-62
2021/03/26 11:49:21;;;;;;;12.33;9.30;;;;;;;19.53;32.98;100411.75;5057577;28;20448;-64